createdAt,value
2023-03-28T00:00:08.980Z,0.33
2023-03-28T00:01:09.038Z,0.35
2023-03-28T00:02:09.112Z,0.27
2023-03-28T00:03:09.192Z,0.37
2023-03-28T00:04:09.256Z,0.27
2023-03-28T00:05:09.274Z,0.33
2023-03-28T00:06:09.424Z,0.28
2023-03-28T00:07:09.401Z,0.27
2023-03-28T00:08:09.431Z,0.19
2023-03-28T00:09:09.498Z,0.58
2023-03-28T00:10:09.553Z,0.32
2023-03-28T00:11:09.607Z,0.43
2023-03-28T00:12:09.784Z,0.27
2023-03-28T00:13:09.732Z,0.48
2023-03-28T00:14:09.792Z,0.32
2023-03-28T00:15:09.845Z,0.37
2023-03-28T00:16:09.957Z,0.43
2023-03-28T00:17:09.952Z,0.91
2023-03-28T00:18:10.012Z,0.20
2023-03-28T00:19:10.084Z,0.44
2023-03-28T00:20:10.141Z,0.29
2023-03-28T00:21:10.189Z,0.21
2023-03-28T00:22:10.237Z,0.35
2023-03-28T00:23:10.294Z,0.45
2023-03-28T00:24:10.368Z,0.12
2023-03-28T00:25:10.414Z,0.29
2023-03-28T00:26:10.477Z,0.32
2023-03-28T00:27:10.541Z,0.33
2023-03-28T00:28:10.596Z,0.24
2023-03-28T00:29:10.668Z,0.28
2023-03-28T00:30:10.715Z,0.19
2023-03-28T00:31:10.783Z,0.25
2023-03-28T00:32:10.823Z,0.33
2023-03-28T00:33:10.885Z,0.20
2023-03-28T00:34:10.941Z,0.18
2023-03-28T00:35:10.985Z,0.29
2023-03-28T00:36:11.039Z,0.26
2023-03-28T00:37:11.107Z,0.29
2023-03-28T00:38:11.163Z,0.36
2023-03-28T00:39:11.222Z,0.31
2023-03-28T00:40:11.286Z,0.34
2023-03-28T00:41:11.371Z,0.21
2023-03-28T00:42:11.386Z,0.20
2023-03-28T00:43:11.471Z,0.16
2023-03-28T00:44:11.514Z,0.26
2023-03-28T00:45:11.641Z,0.43
2023-03-28T00:46:11.906Z,0.18
2023-03-28T00:47:11.676Z,0.26
2023-03-28T00:48:15.342Z,0.27
2023-03-28T00:49:11.740Z,0.13
2023-03-28T00:50:11.734Z,0.21
2023-03-28T00:51:11.738Z,0.42
2023-03-28T00:52:11.705Z,0.33
2023-03-28T00:53:11.696Z,0.40
2023-03-28T00:54:11.687Z,0.07
2023-03-28T00:55:11.707Z,0.37
2023-03-28T00:56:11.683Z,0.35
2023-03-28T00:57:11.739Z,0.37
2023-03-28T00:58:11.653Z,0.35
2023-03-28T00:59:11.658Z,0.52
2023-03-28T01:00:11.685Z,0.26
2023-03-28T01:01:11.680Z,0.34
2023-03-28T01:02:11.637Z,0.43
2023-03-28T01:03:11.840Z,0.25
2023-03-28T01:04:11.622Z,0.21
2023-03-28T01:05:11.612Z,0.21
2023-03-28T01:06:11.602Z,0.29
2023-03-28T01:07:11.643Z,0.39
2023-03-28T01:08:11.610Z,0.20
2023-03-28T01:09:11.591Z,0.23
2023-03-28T01:10:11.566Z,0.29
2023-03-28T01:11:11.607Z,0.30
2023-03-28T01:12:11.563Z,0.28
2023-03-28T01:13:11.573Z,0.24
2023-03-28T01:14:11.631Z,0.21
2023-03-28T01:15:11.682Z,0.50
2023-03-28T01:16:11.850Z,0.36
2023-03-28T01:17:11.794Z,0.28
2023-03-28T01:18:11.851Z,0.57
2023-03-28T01:19:11.924Z,0.25
2023-03-28T01:20:11.969Z,0.31
2023-03-28T01:21:12.012Z,0.33
2023-03-28T01:22:12.079Z,0.30
2023-03-28T01:23:12.136Z,0.30
2023-03-28T01:24:12.649Z,0.18
2023-03-28T01:25:12.259Z,0.30
2023-03-28T01:26:12.314Z,0.28
2023-03-28T01:27:12.377Z,0.51
2023-03-28T01:28:12.455Z,0.23
2023-03-28T01:29:12.485Z,0.22
2023-03-28T01:30:12.539Z,0.20
2023-03-28T01:31:12.614Z,0.28
2023-03-28T01:32:12.669Z,0.41
2023-03-28T01:33:12.722Z,0.22
2023-03-28T01:34:12.777Z,0.33
2023-03-28T01:35:12.831Z,0.22
2023-03-28T01:36:12.908Z,0.89
2023-03-28T01:37:13.877Z,0.22
2023-03-28T01:38:12.887Z,0.33
2023-03-28T01:39:12.863Z,0.40
2023-03-28T01:40:12.873Z,0.34
2023-03-28T01:41:12.862Z,0.42
2023-03-28T01:42:12.836Z,0.29
2023-03-28T01:43:12.831Z,0.17
2023-03-28T01:44:12.826Z,0.22
2023-03-28T01:45:12.818Z,0.24
2023-03-28T01:46:12.938Z,0.30
2023-03-28T01:47:12.918Z,0.32
2023-03-28T01:48:12.976Z,0.40
2023-03-28T01:49:13.055Z,0.45
2023-03-28T01:50:13.122Z,0.45
2023-03-28T01:51:13.182Z,0.26
2023-03-28T01:52:13.233Z,0.17
2023-03-28T01:53:13.293Z,0.22
2023-03-28T01:54:13.376Z,0.40
2023-03-28T01:55:13.411Z,0.28
2023-03-28T01:56:13.484Z,0.33
2023-03-28T01:57:13.582Z,0.26
2023-03-28T01:58:13.578Z,0.28
2023-03-28T01:59:13.639Z,0.26
2023-03-28T02:00:13.693Z,0.22
2023-03-28T02:01:13.865Z,0.28
2023-03-28T02:02:13.888Z,0.36
2023-03-28T02:03:13.969Z,0.31
2023-03-28T02:04:20.392Z,0.39
2023-03-28T02:05:15.553Z,0.56
2023-03-28T02:06:13.926Z,0.14
2023-03-28T02:07:13.911Z,0.27
2023-03-28T02:08:13.914Z,0.36
2023-03-28T02:09:13.930Z,0.25
2023-03-28T02:10:13.920Z,0.41
2023-03-28T02:11:13.893Z,0.14
2023-03-28T02:12:13.891Z,0.26
2023-03-28T02:13:13.910Z,0.42
2023-03-28T02:14:13.990Z,0.38
2023-03-28T02:15:14.031Z,0.18
2023-03-28T02:16:14.124Z,0.30
2023-03-28T02:17:14.140Z,0.36
2023-03-28T02:18:14.182Z,0.21
2023-03-28T02:19:14.263Z,0.21
2023-03-28T02:20:14.289Z,0.14
2023-03-28T02:21:14.508Z,0.38
2023-03-28T02:22:14.435Z,0.38
2023-03-28T02:23:14.507Z,0.25
2023-03-28T02:24:14.545Z,0.22
2023-03-28T02:25:14.613Z,0.32
2023-03-28T02:26:14.645Z,0.12
2023-03-28T02:27:14.708Z,0.37
2023-03-28T02:28:14.755Z,0.33
2023-03-28T02:29:14.845Z,0.28
2023-03-28T02:30:14.865Z,0.19
2023-03-28T02:31:14.970Z,0.33
2023-03-28T02:32:14.995Z,0.31
2023-03-28T02:33:15.064Z,0.19
2023-03-28T02:34:15.144Z,0.27
2023-03-28T02:35:15.161Z,0.45
2023-03-28T02:36:15.234Z,0.23
2023-03-28T02:37:15.291Z,0.27
2023-03-28T02:38:15.355Z,0.35
2023-03-28T02:39:15.427Z,0.25
2023-03-28T02:40:15.492Z,0.31
2023-03-28T02:41:15.529Z,0.29
2023-03-28T02:42:15.592Z,0.22
2023-03-28T02:43:15.661Z,0.23
2023-03-28T02:44:15.736Z,0.38
2023-03-28T02:45:16.703Z,0.31
2023-03-28T02:46:15.789Z,0.39
2023-03-28T02:47:15.705Z,0.24
2023-03-28T02:48:15.687Z,0.33
2023-03-28T02:49:15.703Z,0.12
2023-03-28T02:50:15.678Z,0.44
2023-03-28T02:51:15.656Z,0.16
2023-03-28T02:52:15.657Z,0.31
2023-03-28T02:53:15.661Z,0.26
2023-03-28T02:54:15.707Z,0.28
2023-03-28T02:55:15.774Z,0.24
2023-03-28T02:56:15.828Z,0.21
2023-03-28T02:57:15.905Z,0.25
2023-03-28T02:58:15.945Z,0.25
2023-03-28T02:59:16.001Z,0.31
2023-03-28T03:00:16.056Z,0.25
2023-03-28T03:01:16.139Z,0.28
2023-03-28T03:02:16.167Z,0.28
2023-03-28T03:03:16.277Z,0.18
2023-03-28T03:04:16.288Z,0.33
2023-03-28T03:05:16.329Z,0.18
2023-03-28T03:06:16.401Z,0.33
2023-03-28T03:07:16.511Z,0.32
2023-03-28T03:08:16.521Z,0.21
2023-03-28T03:09:16.570Z,0.32
2023-03-28T03:10:16.637Z,0.30
2023-03-28T03:11:16.720Z,0.22
2023-03-28T03:12:16.762Z,0.29
2023-03-28T03:13:16.806Z,0.50
2023-03-28T03:14:16.885Z,0.19
2023-03-28T03:15:16.993Z,0.40
2023-03-28T03:16:17.033Z,0.22
2023-03-28T03:17:17.048Z,0.37
2023-03-28T03:18:17.117Z,0.17
2023-03-28T03:19:17.156Z,0.22
2023-03-28T03:20:17.232Z,0.09
2023-03-28T03:21:17.345Z,0.24
2023-03-28T03:22:20.657Z,0.23
2023-03-28T03:23:17.312Z,0.27
2023-03-28T03:24:17.311Z,0.12
2023-03-28T03:25:17.324Z,0.16
2023-03-28T03:26:17.313Z,0.12
2023-03-28T03:27:17.289Z,0.18
2023-03-28T03:28:17.315Z,0.22
2023-03-28T03:29:17.282Z,0.24
2023-03-28T03:30:17.281Z,0.21
2023-03-28T03:31:17.341Z,0.17
2023-03-28T03:32:17.261Z,0.27
2023-03-28T03:33:17.278Z,0.24
2023-03-28T03:34:17.246Z,0.36
2023-03-28T03:35:17.281Z,0.30
2023-03-28T03:36:17.228Z,0.30
2023-03-28T03:37:17.229Z,0.33
2023-03-28T03:38:17.216Z,0.55
2023-03-28T03:39:17.209Z,0.47
2023-03-28T03:40:17.212Z,0.38
2023-03-28T03:41:17.188Z,0.44
2023-03-28T03:42:17.192Z,0.38
2023-03-28T03:43:17.181Z,0.61
2023-03-28T03:44:17.163Z,0.45
2023-03-28T03:45:17.158Z,0.48
2023-03-28T03:46:17.259Z,0.47
2023-03-28T03:47:17.153Z,0.24
2023-03-28T03:48:17.143Z,0.35
2023-03-28T03:49:17.138Z,0.53
2023-03-28T03:50:17.155Z,0.48
2023-03-28T03:51:17.204Z,0.41
2023-03-28T03:52:17.283Z,0.48
2023-03-28T03:53:17.335Z,0.28
2023-03-28T03:54:17.420Z,0.37
2023-03-28T03:55:17.443Z,0.48
2023-03-28T03:56:17.512Z,0.36
2023-03-28T03:57:17.616Z,0.53
2023-03-28T03:58:17.606Z,0.42
2023-03-28T03:59:17.614Z,0.31
2023-03-28T04:00:17.598Z,0.55
2023-03-28T04:01:17.602Z,0.34
2023-03-28T04:02:17.596Z,0.50
2023-03-28T04:03:25.127Z,0.36
2023-03-28T04:04:18.588Z,0.31
2023-03-28T04:05:17.575Z,0.37
2023-03-28T04:06:17.566Z,0.42
2023-03-28T04:07:17.543Z,0.49
2023-03-28T04:08:17.538Z,0.27
2023-03-28T04:09:17.541Z,0.39
2023-03-28T04:10:17.526Z,0.19
2023-03-28T04:11:17.523Z,0.56
2023-03-28T04:12:17.507Z,0.14
2023-03-28T04:13:17.570Z,0.48
2023-03-28T04:14:17.606Z,0.58
2023-03-28T04:15:17.657Z,0.46
2023-03-28T04:16:17.748Z,0.30
2023-03-28T04:17:17.774Z,0.32
2023-03-28T04:18:17.904Z,0.17
2023-03-28T04:19:18.085Z,0.23
2023-03-28T04:20:17.945Z,0.27
2023-03-28T04:21:18.000Z,0.22
2023-03-28T04:22:18.070Z,0.53
2023-03-28T04:23:18.118Z,0.19
2023-03-28T04:24:18.190Z,0.36
2023-03-28T04:25:18.267Z,0.58
2023-03-28T04:26:18.301Z,0.20
2023-03-28T04:27:18.330Z,0.37
2023-03-28T04:28:18.374Z,0.36
2023-03-28T04:29:18.436Z,0.50
2023-03-28T04:30:18.472Z,0.50
2023-03-28T04:31:18.567Z,0.25
2023-03-28T04:32:18.603Z,0.23
2023-03-28T04:33:18.652Z,0.28
2023-03-28T04:34:18.705Z,0.41
2023-03-28T04:35:18.799Z,0.22
2023-03-28T04:36:18.912Z,0.56
2023-03-28T04:37:18.875Z,0.30
2023-03-28T04:38:20.731Z,0.49
2023-03-28T04:39:18.995Z,0.31
2023-03-28T04:40:19.127Z,0.43
2023-03-28T04:41:19.138Z,0.24
2023-03-28T04:42:19.179Z,0.34
2023-03-28T04:43:19.221Z,0.15
2023-03-28T04:44:19.281Z,0.38
2023-03-28T04:45:19.345Z,0.37
2023-03-28T04:46:19.442Z,0.16
2023-03-28T04:47:19.444Z,0.25
2023-03-28T04:48:19.524Z,0.42
2023-03-28T04:49:19.592Z,0.37
2023-03-28T04:50:19.640Z,0.31
2023-03-28T04:51:19.692Z,0.37
2023-03-28T04:52:19.740Z,0.35
2023-03-28T04:53:19.799Z,0.18
2023-03-28T04:54:19.883Z,0.20
2023-03-28T04:55:19.922Z,0.21
2023-03-28T04:56:19.974Z,0.34
2023-03-28T04:57:20.095Z,0.22
2023-03-28T04:58:20.111Z,0.33
2023-03-28T04:59:20.178Z,0.40
2023-03-28T05:00:20.208Z,0.33
2023-03-28T05:01:20.309Z,0.48
2023-03-28T05:02:20.364Z,0.36
2023-03-28T05:03:20.531Z,0.20
2023-03-28T05:04:20.444Z,0.25
2023-03-28T05:05:20.500Z,0.37
2023-03-28T05:06:20.573Z,0.22
2023-03-28T05:07:20.620Z,0.21
2023-03-28T05:08:20.653Z,0.38
2023-03-28T05:09:20.714Z,0.33
2023-03-28T05:10:20.785Z,0.34
2023-03-28T05:11:20.833Z,0.33
2023-03-28T05:12:20.886Z,0.37
2023-03-28T05:13:20.936Z,0.25
2023-03-28T05:14:21.006Z,0.16
2023-03-28T05:15:23.075Z,0.45
2023-03-28T05:16:21.132Z,0.23
2023-03-28T05:17:21.162Z,0.40
2023-03-28T05:18:21.220Z,0.26
2023-03-28T05:19:21.267Z,0.37
2023-03-28T05:20:21.337Z,0.34
2023-03-28T05:21:21.396Z,0.31
2023-03-28T05:22:21.409Z,0.40
2023-03-28T05:23:21.461Z,0.26
2023-03-28T05:24:21.520Z,0.27
2023-03-28T05:25:21.579Z,0.28
2023-03-28T05:26:21.619Z,0.37
2023-03-28T05:27:21.682Z,0.24
2023-03-28T05:28:21.753Z,0.68
2023-03-28T05:29:21.756Z,0.60
2023-03-28T05:30:21.796Z,0.43
2023-03-28T05:31:21.832Z,0.63
2023-03-28T05:32:22.234Z,0.83
2023-03-28T05:33:21.851Z,0.69
2023-03-28T05:34:21.881Z,0.69
2023-03-28T05:35:21.946Z,0.68
2023-03-28T05:36:22.030Z,0.68
2023-03-28T05:37:22.218Z,0.96
2023-03-28T05:38:22.047Z,1.32
2023-03-28T05:39:22.088Z,1.17
2023-03-28T05:40:22.124Z,1.90
2023-03-28T05:41:22.156Z,1.13
2023-03-28T05:42:22.231Z,1.12
2023-03-28T05:43:22.220Z,0.96
2023-03-28T05:44:22.223Z,1.06
2023-03-28T05:45:22.260Z,1.00
2023-03-28T05:46:22.320Z,0.99
2023-03-28T05:47:22.285Z,0.99
2023-03-28T05:48:22.339Z,0.82
2023-03-28T05:49:22.445Z,1.13
2023-03-28T05:50:22.413Z,0.75
2023-03-28T05:51:22.413Z,0.82
2023-03-28T05:52:22.452Z,1.23
2023-03-28T05:53:22.480Z,1.32
2023-03-28T05:54:22.544Z,0.84
2023-03-28T05:55:22.599Z,1.39
2023-03-28T05:56:22.616Z,0.66
2023-03-28T05:57:22.684Z,0.73
2023-03-28T05:58:22.727Z,0.80
2023-03-28T05:59:22.661Z,0.93
2023-03-28T06:00:22.683Z,1.20
2023-03-28T06:01:22.674Z,0.75
2023-03-28T06:02:22.756Z,1.43
2023-03-28T06:03:22.807Z,1.61
2023-03-28T06:04:22.734Z,1.46
2023-03-28T06:05:22.740Z,1.51
2023-03-28T06:06:22.710Z,1.31
2023-03-28T06:07:35.350Z,1.20
2023-03-28T06:08:23.758Z,1.21
2023-03-28T06:09:22.716Z,1.46
2023-03-28T06:10:22.694Z,0.94
2023-03-28T06:11:22.701Z,0.92
2023-03-28T06:12:23.193Z,0.83
2023-03-28T06:13:22.678Z,1.10
2023-03-28T06:14:22.684Z,1.20
2023-03-28T06:15:22.698Z,1.27
2023-03-28T06:16:30.374Z,0.87
2023-03-28T06:17:23.684Z,1.49
2023-03-28T06:18:22.694Z,1.08
2023-03-28T06:19:22.762Z,1.82
2023-03-28T06:20:22.670Z,1.63
2023-03-28T06:21:22.637Z,1.68
2023-03-28T06:22:22.638Z,1.81
2023-03-28T06:23:22.627Z,2.60
2023-03-28T06:24:22.612Z,2.68
2023-03-28T06:25:22.608Z,2.78
2023-03-28T06:26:22.617Z,3.41
2023-03-28T06:27:22.604Z,3.47
2023-03-28T06:28:22.640Z,3.66
2023-03-28T06:29:22.685Z,4.42
2023-03-28T06:30:22.748Z,5.04
2023-03-28T06:31:22.783Z,6.09
2023-03-28T06:32:22.811Z,5.85
2023-03-28T06:33:23.189Z,7.55
2023-03-28T06:34:22.865Z,6.96
2023-03-28T06:35:22.912Z,7.60
2023-03-28T06:36:23.114Z,7.44
2023-03-28T06:37:23.204Z,7.42
2023-03-28T06:38:23.080Z,7.29
2023-03-28T06:39:23.064Z,7.19
2023-03-28T06:40:23.109Z,6.67
2023-03-28T06:41:23.140Z,6.61
2023-03-28T06:42:23.166Z,5.94
2023-03-28T06:43:23.193Z,6.50
2023-03-28T06:44:23.206Z,4.98
2023-03-28T06:45:23.232Z,5.98
2023-03-28T06:46:23.295Z,6.41
2023-03-28T06:47:23.327Z,6.85
2023-03-28T06:48:23.304Z,6.49
2023-03-28T06:49:23.416Z,6.67
2023-03-28T06:50:23.361Z,6.56
2023-03-28T06:51:23.361Z,6.04
2023-03-28T06:52:23.727Z,6.06
2023-03-28T06:53:23.413Z,5.25
2023-03-28T06:54:23.435Z,4.32
2023-03-28T06:55:23.483Z,4.14
2023-03-28T06:56:23.528Z,4.08
2023-03-28T06:57:23.635Z,3.51
2023-03-28T06:58:23.640Z,3.26
2023-03-28T06:59:23.719Z,2.56
2023-03-28T07:00:23.747Z,2.18
2023-03-28T07:01:23.765Z,2.78
2023-03-28T07:02:23.787Z,2.00
2023-03-28T07:03:23.770Z,1.79
2023-03-28T07:04:23.737Z,1.87
2023-03-28T07:05:23.709Z,1.97
2023-03-28T07:06:23.717Z,1.82
2023-03-28T07:07:23.737Z,1.60
2023-03-28T07:08:23.791Z,1.74
2023-03-28T07:09:23.743Z,1.33
2023-03-28T07:10:23.750Z,1.58
2023-03-28T07:11:23.757Z,1.64
2023-03-28T07:12:24.265Z,1.35
2023-03-28T07:13:23.772Z,1.71
2023-03-28T07:14:23.799Z,1.46
2023-03-28T07:15:23.781Z,1.44
2023-03-28T07:16:23.825Z,1.76
2023-03-28T07:17:23.794Z,1.61
2023-03-28T07:18:23.840Z,1.28
2023-03-28T07:19:23.831Z,1.41
2023-03-28T07:20:23.858Z,1.21
2023-03-28T07:21:23.870Z,1.31
2023-03-28T07:22:23.931Z,0.84
2023-03-28T07:23:23.896Z,1.76
2023-03-28T07:24:23.915Z,1.41
2023-03-28T07:25:24.211Z,0.92
2023-03-28T07:26:23.993Z,1.37
2023-03-28T07:27:25.056Z,1.70
2023-03-28T07:28:24.057Z,2.17
2023-03-28T07:29:24.066Z,2.14
2023-03-28T07:30:24.286Z,2.07
2023-03-28T07:31:24.123Z,1.83
2023-03-28T07:32:24.160Z,2.11
2023-03-28T07:33:34.190Z,2.08
2023-03-28T07:34:25.147Z,2.21
2023-03-28T07:35:24.103Z,2.00
2023-03-28T07:36:24.120Z,1.62
2023-03-28T07:37:24.100Z,2.12
2023-03-28T07:38:24.088Z,1.89
2023-03-28T07:39:24.088Z,2.04
2023-03-28T07:40:24.109Z,2.17
2023-03-28T07:41:24.189Z,1.69
2023-03-28T07:42:24.054Z,1.73
2023-03-28T07:43:24.069Z,1.91
2023-03-28T07:44:24.058Z,1.77
2023-03-28T07:45:24.058Z,2.16
2023-03-28T07:46:24.161Z,1.89
2023-03-28T07:47:24.043Z,1.93
2023-03-28T07:48:24.225Z,1.80
2023-03-28T07:49:24.031Z,1.94
2023-03-28T07:50:25.010Z,1.51
2023-03-28T07:51:24.241Z,1.73
2023-03-28T07:52:24.135Z,1.60
2023-03-28T07:53:24.161Z,1.12
2023-03-28T07:54:24.209Z,1.35
2023-03-28T07:55:24.288Z,1.13
2023-03-28T07:56:24.357Z,1.23
2023-03-28T07:57:24.395Z,1.22
2023-03-28T07:58:24.477Z,1.18
2023-03-28T07:59:24.491Z,1.49
2023-03-28T08:00:24.537Z,1.28
2023-03-28T08:01:24.592Z,0.94
2023-03-28T08:02:24.689Z,0.83
2023-03-28T08:03:24.767Z,0.93
2023-03-28T08:04:24.696Z,0.88
2023-03-28T08:05:24.797Z,1.03
2023-03-28T08:06:32.048Z,1.09
2023-03-28T08:07:25.809Z,1.08
2023-03-28T08:08:24.773Z,1.24
2023-03-28T08:09:24.745Z,1.07
2023-03-28T08:10:24.807Z,0.95
2023-03-28T08:11:24.753Z,1.04
2023-03-28T08:12:24.759Z,0.91
2023-03-28T08:13:24.740Z,0.92
2023-03-28T08:14:24.731Z,1.27
2023-03-28T08:15:24.717Z,1.06
2023-03-28T08:16:24.816Z,0.92
2023-03-28T08:17:24.717Z,0.67
2023-03-28T08:18:24.711Z,1.13
2023-03-28T08:19:24.665Z,0.63
2023-03-28T08:20:24.669Z,1.00
2023-03-28T08:21:26.743Z,0.84
2023-03-28T08:22:24.749Z,1.37
2023-03-28T08:23:24.714Z,0.66
2023-03-28T08:24:34.938Z,0.89
2023-03-28T08:25:25.653Z,0.74
2023-03-28T08:26:24.643Z,0.97
2023-03-28T08:27:24.651Z,0.96
2023-03-28T08:28:24.644Z,0.97
2023-03-28T08:29:24.656Z,1.06
2023-03-28T08:30:24.620Z,1.01
2023-03-28T08:31:24.631Z,0.93
2023-03-28T08:32:24.638Z,1.41
2023-03-28T08:33:24.593Z,1.19
2023-03-28T08:34:24.605Z,0.99
2023-03-28T08:35:24.588Z,1.21
2023-03-28T08:36:24.625Z,1.20
2023-03-28T08:37:24.560Z,1.23
2023-03-28T08:38:24.574Z,1.29
2023-03-28T08:39:24.771Z,1.09
2023-03-28T08:40:24.553Z,1.70
2023-03-28T08:41:24.563Z,0.98
2023-03-28T08:42:24.567Z,1.02
2023-03-28T08:43:24.589Z,1.33
2023-03-28T08:44:24.695Z,1.48
2023-03-28T08:45:24.596Z,1.25
2023-03-28T08:46:24.640Z,1.52
2023-03-28T08:47:24.623Z,1.50
2023-03-28T08:48:24.666Z,1.65
2023-03-28T08:49:24.683Z,1.58
2023-03-28T08:50:24.676Z,1.02
2023-03-28T08:51:24.684Z,1.25
2023-03-28T08:52:24.772Z,1.00
2023-03-28T08:53:25.136Z,1.34
2023-03-28T08:54:24.863Z,0.84
2023-03-28T08:55:24.911Z,1.04
2023-03-28T08:56:24.973Z,1.08
2023-03-28T08:57:25.139Z,0.63
2023-03-28T08:58:25.118Z,0.99
2023-03-28T08:59:25.140Z,0.90
2023-03-28T09:00:25.200Z,0.98
2023-03-28T09:01:25.287Z,1.08
2023-03-28T09:02:25.430Z,0.87
2023-03-28T09:03:25.484Z,1.16
2023-03-28T09:04:25.419Z,0.84
2023-03-28T09:05:25.433Z,0.70
2023-03-28T09:06:25.491Z,1.04
2023-03-28T09:07:25.583Z,0.94
2023-03-28T09:08:25.586Z,1.04
2023-03-28T09:09:25.599Z,1.03
2023-03-28T09:10:25.656Z,0.88
2023-03-28T09:11:25.698Z,0.76
2023-03-28T09:12:25.722Z,0.84
2023-03-28T09:13:25.774Z,0.93
2023-03-28T09:14:25.812Z,0.71
2023-03-28T09:15:25.840Z,0.86
2023-03-28T09:16:25.925Z,0.70
2023-03-28T09:17:25.924Z,0.76
2023-03-28T09:18:25.928Z,0.76
2023-03-28T09:19:31.179Z,0.63
2023-03-28T09:20:26.964Z,0.45
2023-03-28T09:21:25.957Z,1.02
2023-03-28T09:22:25.958Z,0.70
2023-03-28T09:23:25.953Z,0.91
2023-03-28T09:24:25.944Z,0.91
2023-03-28T09:25:25.947Z,0.69
2023-03-28T09:26:25.910Z,0.66
2023-03-28T09:27:25.936Z,0.76
2023-03-28T09:28:25.915Z,0.56
2023-03-28T09:29:26.285Z,1.01
2023-03-28T09:30:25.892Z,1.55
2023-03-28T09:31:27.138Z,1.95
2023-03-28T09:32:25.892Z,1.65
2023-03-28T09:33:25.876Z,1.57
2023-03-28T09:34:26.291Z,1.74
2023-03-28T09:35:25.921Z,1.29
2023-03-28T09:36:31.597Z,1.27
2023-03-28T09:37:26.851Z,1.35
2023-03-28T09:38:25.841Z,1.25
2023-03-28T09:39:25.855Z,1.26
2023-03-28T09:40:25.832Z,1.19
2023-03-28T09:41:25.815Z,1.26
2023-03-28T09:42:25.813Z,1.17
2023-03-28T09:43:25.825Z,0.90
2023-03-28T09:44:26.294Z,1.00
2023-03-28T09:45:25.793Z,1.02
2023-03-28T09:46:25.802Z,0.71
2023-03-28T09:47:25.853Z,0.91
2023-03-28T09:48:25.895Z,1.09
2023-03-28T09:49:25.894Z,1.23
2023-03-28T09:50:26.268Z,0.56
2023-03-28T09:51:25.952Z,1.19
2023-03-28T09:52:25.981Z,0.96
2023-03-28T09:53:26.035Z,1.03
2023-03-28T09:54:26.064Z,0.80
2023-03-28T09:55:26.131Z,0.88
2023-03-28T09:56:26.168Z,0.83
2023-03-28T09:57:26.245Z,0.89
2023-03-28T09:58:26.278Z,0.69
2023-03-28T09:59:28.511Z,1.05
2023-03-28T10:00:26.773Z,1.03
2023-03-28T10:01:26.613Z,1.01
2023-03-28T10:02:26.706Z,0.87
2023-03-28T10:03:26.717Z,1.10
2023-03-28T10:04:26.829Z,0.97
2023-03-28T10:05:27.275Z,0.93
2023-03-28T10:06:26.894Z,0.91
2023-03-28T10:07:26.934Z,1.13
2023-03-28T10:08:26.995Z,1.19
2023-03-28T10:09:27.039Z,1.18
2023-03-28T10:10:27.295Z,1.26
2023-03-28T10:11:27.063Z,1.11
2023-03-28T10:12:27.078Z,1.31
2023-03-28T10:13:27.053Z,1.16
2023-03-28T10:14:27.053Z,1.13
2023-03-28T10:15:27.074Z,1.33
2023-03-28T10:16:27.104Z,1.35
2023-03-28T10:17:27.124Z,1.20
2023-03-28T10:18:27.087Z,1.53
2023-03-28T10:19:27.127Z,1.35
2023-03-28T10:20:27.278Z,1.43
2023-03-28T10:21:27.122Z,1.48
2023-03-28T10:22:27.183Z,1.73
2023-03-28T10:23:27.195Z,1.53
2023-03-28T10:24:27.263Z,1.85
2023-03-28T10:25:27.788Z,1.46
2023-03-28T10:26:27.348Z,1.37
2023-03-28T10:27:27.384Z,1.41
2023-03-28T10:28:27.412Z,1.24
2023-03-28T10:29:27.417Z,1.38
2023-03-28T10:30:27.428Z,1.30
2023-03-28T10:31:27.434Z,1.13
2023-03-28T10:32:27.455Z,1.27
2023-03-28T10:33:27.537Z,1.32
2023-03-28T10:34:27.611Z,0.98
2023-03-28T10:35:27.792Z,1.19
2023-03-28T10:36:27.653Z,1.14
2023-03-28T10:37:27.726Z,0.88
2023-03-28T10:38:27.731Z,0.89
2023-03-28T10:39:27.781Z,0.65
2023-03-28T10:40:27.915Z,0.74
2023-03-28T10:41:27.820Z,1.18
2023-03-28T10:42:27.857Z,1.26
2023-03-28T10:43:27.884Z,1.00
2023-03-28T10:44:27.899Z,0.96
2023-03-28T10:45:27.917Z,1.26
2023-03-28T10:46:27.987Z,1.00
2023-03-28T10:47:28.032Z,1.05
2023-03-28T10:48:28.000Z,0.94
2023-03-28T10:49:28.027Z,0.99
2023-03-28T10:50:28.050Z,0.84
2023-03-28T10:51:28.074Z,0.78
2023-03-28T10:52:28.288Z,0.79
2023-03-28T10:53:28.118Z,1.17
2023-03-28T10:54:28.133Z,1.01
2023-03-28T10:55:28.187Z,0.98
2023-03-28T10:56:28.220Z,0.68
2023-03-28T10:57:28.199Z,1.29
2023-03-28T10:58:28.227Z,1.07
2023-03-28T10:59:28.263Z,1.40
2023-03-28T11:00:28.274Z,1.42
2023-03-28T11:01:29.173Z,0.99
2023-03-28T11:02:28.350Z,1.16
2023-03-28T11:03:28.400Z,1.45
2023-03-28T11:04:28.282Z,1.22
2023-03-28T11:05:28.273Z,1.05
2023-03-28T11:06:28.281Z,1.20
2023-03-28T11:07:30.169Z,1.14
2023-03-28T11:08:28.473Z,0.78
2023-03-28T11:09:28.465Z,1.49
2023-03-28T11:10:28.455Z,1.18
2023-03-28T11:11:28.466Z,0.83
2023-03-28T11:12:31.027Z,0.98
2023-03-28T11:13:29.487Z,1.06
2023-03-28T11:14:28.488Z,0.88
2023-03-28T11:15:28.465Z,0.91
2023-03-28T11:16:28.855Z,1.09
2023-03-28T11:17:28.841Z,1.41
2023-03-28T11:18:30.016Z,0.88
2023-03-28T11:19:28.578Z,1.01
2023-03-28T11:20:28.588Z,0.67
2023-03-28T11:21:28.564Z,1.17
2023-03-28T11:22:28.813Z,1.00
2023-03-28T11:23:28.583Z,1.38
2023-03-28T11:24:28.573Z,1.12
2023-03-28T11:25:28.570Z,1.37
2023-03-28T11:26:28.564Z,1.20
2023-03-28T11:27:28.620Z,1.29
2023-03-28T11:28:28.579Z,1.44
2023-03-28T11:29:40.485Z,1.09
2023-03-28T11:30:29.583Z,2.88
2023-03-28T11:31:28.596Z,1.07
2023-03-28T11:32:28.597Z,1.15
2023-03-28T11:33:28.564Z,1.29
2023-03-28T11:34:28.565Z,0.97
2023-03-28T11:35:28.572Z,1.40
2023-03-28T11:36:28.540Z,0.99
2023-03-28T11:37:28.524Z,0.83
2023-03-28T11:38:28.573Z,0.90
2023-03-28T11:39:28.613Z,0.98
2023-03-28T11:40:28.696Z,0.86
2023-03-28T11:41:28.722Z,0.99
2023-03-28T11:42:28.796Z,0.90
2023-03-28T11:43:28.865Z,0.85
2023-03-28T11:44:28.898Z,0.82
2023-03-28T11:45:42.448Z,0.92
2023-03-28T11:46:30.040Z,0.87
2023-03-28T11:47:28.960Z,1.03
2023-03-28T11:48:28.939Z,0.78
2023-03-28T11:49:28.919Z,0.88
2023-03-28T11:50:28.916Z,0.59
2023-03-28T11:51:28.917Z,0.53
2023-03-28T11:52:28.903Z,0.81
2023-03-28T11:53:28.900Z,0.70
2023-03-28T11:54:28.897Z,0.61
2023-03-28T11:55:28.957Z,0.53
2023-03-28T11:56:29.008Z,0.59
2023-03-28T11:57:29.048Z,0.61
2023-03-28T11:58:29.101Z,0.76
2023-03-28T11:59:29.185Z,0.72
2023-03-28T12:00:33.981Z,0.81
2023-03-28T12:01:30.282Z,0.76
2023-03-28T12:02:29.309Z,0.71
2023-03-28T12:03:29.327Z,0.68
2023-03-28T12:04:29.254Z,1.09
2023-03-28T12:05:29.160Z,0.70
2023-03-28T12:06:29.163Z,0.79
2023-03-28T12:07:29.158Z,0.67
2023-03-28T12:08:29.153Z,0.63
2023-03-28T12:09:29.147Z,0.48
2023-03-28T12:10:29.164Z,0.71
2023-03-28T12:11:29.175Z,0.58
2023-03-28T12:12:29.257Z,0.55
2023-03-28T12:13:29.288Z,0.51
2023-03-28T12:14:29.362Z,0.31
2023-03-28T12:15:29.837Z,0.30
2023-03-28T12:16:29.873Z,0.52
2023-03-28T12:17:29.531Z,0.64
2023-03-28T12:18:29.589Z,0.68
2023-03-28T12:19:29.638Z,0.73
2023-03-28T12:20:29.702Z,0.76
2023-03-28T12:21:29.834Z,0.41
2023-03-28T12:22:29.799Z,0.70
2023-03-28T12:23:29.852Z,0.31
2023-03-28T12:24:29.907Z,0.51
2023-03-28T12:25:29.948Z,0.65
2023-03-28T12:26:29.998Z,0.53
2023-03-28T12:27:30.055Z,0.47
2023-03-28T12:28:30.102Z,0.62
2023-03-28T12:29:30.166Z,0.65
2023-03-28T12:30:30.327Z,0.51
2023-03-28T12:31:30.316Z,0.65
2023-03-28T12:32:30.394Z,0.54
2023-03-28T12:33:30.390Z,0.38
2023-03-28T12:34:30.453Z,0.35
2023-03-28T12:35:30.540Z,0.56
2023-03-28T12:36:30.562Z,0.39
2023-03-28T12:37:30.600Z,0.58
2023-03-28T12:38:30.667Z,0.47
2023-03-28T12:39:30.746Z,0.67
2023-03-28T12:40:30.786Z,0.49
2023-03-28T12:41:30.847Z,0.72
2023-03-28T12:42:30.918Z,0.51
2023-03-28T12:43:30.949Z,0.53
2023-03-28T12:44:31.036Z,0.58
2023-03-28T12:45:31.066Z,0.81
2023-03-28T12:46:31.195Z,0.49
2023-03-28T12:47:31.196Z,0.27
2023-03-28T12:48:31.230Z,0.52
2023-03-28T12:49:31.289Z,0.37
2023-03-28T12:50:31.325Z,0.44
2023-03-28T12:51:31.399Z,0.59
2023-03-28T12:52:31.438Z,0.47
2023-03-28T12:53:31.513Z,0.61
2023-03-28T12:54:31.568Z,0.57
2023-03-28T12:55:31.681Z,0.86
2023-03-28T12:56:31.678Z,0.41
2023-03-28T12:57:36.518Z,0.36
2023-03-28T12:58:32.727Z,0.21
2023-03-28T12:59:31.707Z,0.42
2023-03-28T13:00:31.698Z,0.68
2023-03-28T13:01:31.729Z,0.67
2023-03-28T13:02:31.757Z,0.42
2023-03-28T13:03:31.692Z,1.10
2023-03-28T13:04:31.722Z,0.32
2023-03-28T13:05:31.695Z,0.55
2023-03-28T13:06:31.646Z,0.35
2023-03-28T13:07:31.659Z,0.42
2023-03-28T13:08:31.718Z,0.33
2023-03-28T13:09:31.791Z,0.46
2023-03-28T13:10:31.853Z,0.19
2023-03-28T13:11:31.900Z,0.33
2023-03-28T13:12:31.971Z,0.20
2023-03-28T13:13:32.005Z,0.41
2023-03-28T13:14:32.065Z,0.31
2023-03-28T13:15:32.145Z,0.24
2023-03-28T13:16:32.217Z,0.50
2023-03-28T13:17:32.317Z,0.45
2023-03-28T13:18:32.357Z,0.49